sensor_id;sensor_type;location;lat;lon;timestamp;temperature;humidity
13074;DHT22;6603;47.066;15.396;2022-10-22T00:02:25;10.30;99.90
13074;DHT22;6603;47.066;15.396;2022-10-22T00:04:53;10.30;99.90
13074;DHT22;6603;47.066;15.396;2022-10-22T00:07:19;10.30;99.90
13074;DHT22;6603;47.066;15.396;2022-10-22T00:09:45;10.20;99.90
13074;DHT22;6603;47.066;15.396;2022-10-22T00:12:13;10.30;99.90
13074;DHT22;6603;47.066;15.396;2022-10-22T00:14:40;10.30;99.90
13074;DHT22;6603;47.066;15.396;2022-10-22T00:17:06;10.30;99.90
13074;DHT22;6603;47.066;15.396;2022-10-22T00:19:32;10.30;99.90
13074;DHT22;6603;47.066;15.396;2022-10-22T00:21:58;10.40;99.90
13074;DHT22;6603;47.066;15.396;2022-10-22T00:24:24;10.40;99.90
13074;DHT22;6603;47.066;15.396;2022-10-22T00:26:50;10.40;99.90
13074;DHT22;6603;47.066;15.396;2022-10-22T00:29:16;10.40;99.90
13074;DHT22;6603;47.066;15.396;2022-10-22T00:31:45;10.50;99.90
13074;DHT22;6603;47.066;15.396;2022-10-22T00:34:18;10.40;99.90
13074;DHT22;6603;47.066;15.396;2022-10-22T00:36:46;10.40;99.90
13074;DHT22;6603;47.066;15.396;2022-10-22T00:39:17;10.40;99.90
13074;DHT22;6603;47.066;15.396;2022-10-22T00:41:46;10.40;99.90
13074;DHT22;6603;47.066;15.396;2022-10-22T00:47:16;10.40;99.90
13074;DHT22;6603;47.066;15.396;2022-10-22T00:49:44;10.30;99.90
13074;DHT22;6603;47.066;15.396;2022-10-22T00:52:11;10.40;99.90
13074;DHT22;6603;47.066;15.396;2022-10-22T00:54:38;10.40;99.90
13074;DHT22;6603;47.066;15.396;2022-10-22T00:57:04;10.50;99.90
13074;DHT22;6603;47.066;15.396;2022-10-22T00:59:30;10.40;99.90
13074;DHT22;6603;47.066;15.396;2022-10-22T01:01:57;10.40;99.90
13074;DHT22;6603;47.066;15.396;2022-10-22T01:04:23;10.40;99.90
13074;DHT22;6603;47.066;15.396;2022-10-22T01:06:49;10.40;99.90
13074;DHT22;6603;47.066;15.396;2022-10-22T01:11:54;10.40;99.90
13074;DHT22;6603;47.066;15.396;2022-10-22T01:14:35;10.30;99.90
13074;DHT22;6603;47.066;15.396;2022-10-22T01:17:17;10.20;99.90
13074;DHT22;6603;47.066;15.396;2022-10-22T01:25:36;10.20;99.90
13074;DHT22;6603;47.066;15.396;2022-10-22T01:30:58;10.20;99.90
13074;DHT22;6603;47.066;15.396;2022-10-22T01:33:26;10.20;99.90
13074;DHT22;6603;47.066;15.396;2022-10-22T01:35:53;10.10;99.90
13074;DHT22;6603;47.066;15.396;2022-10-22T01:38:21;10.10;99.90
13074;DHT22;6603;47.066;15.396;2022-10-22T01:40:50;10.10;99.90
13074;DHT22;6603;47.066;15.396;2022-10-22T01:43:16;10.10;99.90
13074;DHT22;6603;47.066;15.396;2022-10-22T01:45:47;10.00;99.90
13074;DHT22;6603;47.066;15.396;2022-10-22T01:51:29;10.00;99.90
13074;DHT22;6603;47.066;15.396;2022-10-22T01:59:03;9.90;99.90
13074;DHT22;6603;47.066;15.396;2022-10-22T02:04:19;9.80;99.90
13074;DHT22;6603;47.066;15.396;2022-10-22T02:06:47;9.80;99.90
13074;DHT22;6603;47.066;15.396;2022-10-22T02:09:16;9.80;99.90
13074;DHT22;6603;47.066;15.396;2022-10-22T02:11:45;9.80;99.90
13074;DHT22;6603;47.066;15.396;2022-10-22T02:14:13;9.70;99.90
13074;DHT22;6603;47.066;15.396;2022-10-22T02:16:45;9.80;99.90
13074;DHT22;6603;47.066;15.396;2022-10-22T02:19:27;9.70;99.90
13074;DHT22;6603;47.066;15.396;2022-10-22T02:21:55;9.70;99.90
13074;DHT22;6603;47.066;15.396;2022-10-22T02:24:21;9.70;99.90
13074;DHT22;6603;47.066;15.396;2022-10-22T02:29:29;9.60;99.90
13074;DHT22;6603;47.066;15.396;2022-10-22T02:32:00;9.60;99.90
13074;DHT22;6603;47.066;15.396;2022-10-22T02:34:30;9.60;99.90
13074;DHT22;6603;47.066;15.396;2022-10-22T02:36:58;9.60;99.90
13074;DHT22;6603;47.066;15.396;2022-10-22T02:39:26;9.60;99.90
13074;DHT22;6603;47.066;15.396;2022-10-22T02:41:52;9.50;99.90
13074;DHT22;6603;47.066;15.396;2022-10-22T02:44:21;9.50;99.90
13074;DHT22;6603;47.066;15.396;2022-10-22T02:46:47;9.50;99.90
13074;DHT22;6603;47.066;15.396;2022-10-22T02:49:13;9.50;99.90
13074;DHT22;6603;47.066;15.396;2022-10-22T02:51:39;9.50;99.90
13074;DHT22;6603;47.066;15.396;2022-10-22T02:54:05;9.50;99.90
13074;DHT22;6603;47.066;15.396;2022-10-22T02:56:31;9.40;99.90
13074;DHT22;6603;47.066;15.396;2022-10-22T02:58:57;9.40;99.90
13074;DHT22;6603;47.066;15.396;2022-10-22T03:01:23;9.40;99.90
13074;DHT22;6603;47.066;15.396;2022-10-22T03:03:49;9.40;99.90
13074;DHT22;6603;47.066;15.396;2022-10-22T03:06:16;9.40;99.90
13074;DHT22;6603;47.066;15.396;2022-10-22T03:08:42;9.30;99.90
13074;DHT22;6603;47.066;15.396;2022-10-22T03:11:08;9.30;99.90
13074;DHT22;6603;47.066;15.396;2022-10-22T03:13:35;9.20;99.90
13074;DHT22;6603;47.066;15.396;2022-10-22T03:16:01;9.20;99.90
13074;DHT22;6603;47.066;15.396;2022-10-22T03:18:26;9.20;99.90
13074;DHT22;6603;47.066;15.396;2022-10-22T03:21:06;9.30;99.90
13074;DHT22;6603;47.066;15.396;2022-10-22T03:23:33;9.20;99.90
13074;DHT22;6603;47.066;15.396;2022-10-22T03:26:00;9.20;99.90
13074;DHT22;6603;47.066;15.396;2022-10-22T03:28:26;9.20;99.90
13074;DHT22;6603;47.066;15.396;2022-10-22T03:30:52;9.30;99.90
13074;DHT22;6603;47.066;15.396;2022-10-22T03:33:18;9.10;99.90
13074;DHT22;6603;47.066;15.396;2022-10-22T03:35:45;9.20;99.90
13074;DHT22;6603;47.066;15.396;2022-10-22T03:38:12;9.10;99.90
13074;DHT22;6603;47.066;15.396;2022-10-22T03:40:41;9.10;99.90
13074;DHT22;6603;47.066;15.396;2022-10-22T03:43:07;9.10;99.90
13074;DHT22;6603;47.066;15.396;2022-10-22T03:45:33;9.10;99.90
13074;DHT22;6603;47.066;15.396;2022-10-22T03:47:59;9.20;99.90
13074;DHT22;6603;47.066;15.396;2022-10-22T03:50:24;9.20;99.90
13074;DHT22;6603;47.066;15.396;2022-10-22T03:52:50;9.10;99.90
13074;DHT22;6603;47.066;15.396;2022-10-22T03:55:17;9.10;99.90
13074;DHT22;6603;47.066;15.396;2022-10-22T03:57:43;9.10;99.90
13074;DHT22;6603;47.066;15.396;2022-10-22T04:00:09;9.10;99.90
13074;DHT22;6603;47.066;15.396;2022-10-22T04:02:35;8.90;99.90
13074;DHT22;6603;47.066;15.396;2022-10-22T04:05:01;8.90;99.90
13074;DHT22;6603;47.066;15.396;2022-10-22T04:07:27;8.90;99.90
13074;DHT22;6603;47.066;15.396;2022-10-22T04:09:53;8.90;99.90
13074;DHT22;6603;47.066;15.396;2022-10-22T04:12:18;8.90;99.90
13074;DHT22;6603;47.066;15.396;2022-10-22T04:14:44;8.90;99.90
13074;DHT22;6603;47.066;15.396;2022-10-22T04:17:10;8.90;99.90
13074;DHT22;6603;47.066;15.396;2022-10-22T04:19:36;8.80;99.90
13074;DHT22;6603;47.066;15.396;2022-10-22T04:22:01;8.80;99.90
13074;DHT22;6603;47.066;15.396;2022-10-22T04:24:29;8.80;99.90
13074;DHT22;6603;47.066;15.396;2022-10-22T04:26:56;8.80;99.90
13074;DHT22;6603;47.066;15.396;2022-10-22T04:29:22;8.80;99.90
13074;DHT22;6603;47.066;15.396;2022-10-22T04:31:49;8.90;99.90
13074;DHT22;6603;47.066;15.396;2022-10-22T04:34:14;8.90;99.90
13074;DHT22;6603;47.066;15.396;2022-10-22T04:36:40;9.10;99.90
13074;DHT22;6603;47.066;15.396;2022-10-22T04:39:06;9.00;99.90
13074;DHT22;6603;47.066;15.396;2022-10-22T04:41:35;8.90;99.90
13074;DHT22;6603;47.066;15.396;2022-10-22T04:44:01;8.80;99.90
13074;DHT22;6603;47.066;15.396;2022-10-22T04:46:29;8.80;99.90
13074;DHT22;6603;47.066;15.396;2022-10-22T04:48:56;8.70;99.90
13074;DHT22;6603;47.066;15.396;2022-10-22T04:51:23;8.60;99.90
13074;DHT22;6603;47.066;15.396;2022-10-22T04:53:49;8.60;99.90
13074;DHT22;6603;47.066;15.396;2022-10-22T04:56:22;8.60;99.90
13074;DHT22;6603;47.066;15.396;2022-10-22T04:58:51;8.70;99.90
13074;DHT22;6603;47.066;15.396;2022-10-22T05:01:20;8.80;99.90
13074;DHT22;6603;47.066;15.396;2022-10-22T05:03:48;8.70;99.90
13074;DHT22;6603;47.066;15.396;2022-10-22T05:06:15;8.70;99.90
13074;DHT22;6603;47.066;15.396;2022-10-22T05:08:41;8.60;99.90
13074;DHT22;6603;47.066;15.396;2022-10-22T05:13:38;8.70;99.90
13074;DHT22;6603;47.066;15.396;2022-10-22T05:16:04;8.70;99.90
13074;DHT22;6603;47.066;15.396;2022-10-22T05:18:30;8.80;99.90
13074;DHT22;6603;47.066;15.396;2022-10-22T05:20:57;8.80;99.90
13074;DHT22;6603;47.066;15.396;2022-10-22T05:23:23;8.70;99.90
13074;DHT22;6603;47.066;15.396;2022-10-22T05:25:49;8.80;99.90
13074;DHT22;6603;47.066;15.396;2022-10-22T05:28:15;8.90;99.90
13074;DHT22;6603;47.066;15.396;2022-10-22T05:30:40;8.90;99.90
13074;DHT22;6603;47.066;15.396;2022-10-22T05:33:06;8.80;99.90
13074;DHT22;6603;47.066;15.396;2022-10-22T05:35:32;9.00;99.90
13074;DHT22;6603;47.066;15.396;2022-10-22T05:37:58;9.00;99.90
13074;DHT22;6603;47.066;15.396;2022-10-22T05:40:24;8.90;99.90
13074;DHT22;6603;47.066;15.396;2022-10-22T05:42:50;8.90;99.90
13074;DHT22;6603;47.066;15.396;2022-10-22T05:45:15;8.80;99.90
13074;DHT22;6603;47.066;15.396;2022-10-22T05:47:41;9.00;99.90
13074;DHT22;6603;47.066;15.396;2022-10-22T05:50:07;9.00;99.90
13074;DHT22;6603;47.066;15.396;2022-10-22T05:52:33;9.10;99.90
13074;DHT22;6603;47.066;15.396;2022-10-22T05:54:59;9.20;99.90
13074;DHT22;6603;47.066;15.396;2022-10-22T05:57:24;9.00;99.90
13074;DHT22;6603;47.066;15.396;2022-10-22T05:59:50;9.10;99.90
13074;DHT22;6603;47.066;15.396;2022-10-22T06:02:16;9.10;99.90
13074;DHT22;6603;47.066;15.396;2022-10-22T06:04:42;9.10;99.90
13074;DHT22;6603;47.066;15.396;2022-10-22T06:07:11;9.20;99.90
13074;DHT22;6603;47.066;15.396;2022-10-22T06:09:39;9.20;99.90
13074;DHT22;6603;47.066;15.396;2022-10-22T06:12:05;9.40;99.90
13074;DHT22;6603;47.066;15.396;2022-10-22T06:14:35;9.50;99.90
13074;DHT22;6603;47.066;15.396;2022-10-22T06:17:01;9.70;99.90
13074;DHT22;6603;47.066;15.396;2022-10-22T06:19:26;9.80;99.90
13074;DHT22;6603;47.066;15.396;2022-10-22T06:21:54;9.80;99.90
13074;DHT22;6603;47.066;15.396;2022-10-22T06:24:20;9.80;99.90
13074;DHT22;6603;47.066;15.396;2022-10-22T06:26:49;9.80;99.90
13074;DHT22;6603;47.066;15.396;2022-10-22T06:29:14;9.90;99.90
13074;DHT22;6603;47.066;15.396;2022-10-22T06:31:40;10.00;99.90
13074;DHT22;6603;47.066;15.396;2022-10-22T06:34:10;10.10;99.90
13074;DHT22;6603;47.066;15.396;2022-10-22T06:36:37;10.20;99.90
13074;DHT22;6603;47.066;15.396;2022-10-22T06:39:03;10.30;99.90
13074;DHT22;6603;47.066;15.396;2022-10-22T06:41:29;10.40;99.90
13074;DHT22;6603;47.066;15.396;2022-10-22T06:43:56;10.50;99.90
13074;DHT22;6603;47.066;15.396;2022-10-22T06:46:24;10.50;99.90
13074;DHT22;6603;47.066;15.396;2022-10-22T06:48:52;10.50;99.90
13074;DHT22;6603;47.066;15.396;2022-10-22T06:51:20;10.60;99.90
13074;DHT22;6603;47.066;15.396;2022-10-22T06:53:48;10.60;99.90
13074;DHT22;6603;47.066;15.396;2022-10-22T06:56:18;10.70;99.90
13074;DHT22;6603;47.066;15.396;2022-10-22T06:58:50;10.90;99.90
13074;DHT22;6603;47.066;15.396;2022-10-22T07:01:19;10.90;99.90
13074;DHT22;6603;47.066;15.396;2022-10-22T07:03:46;11.10;99.90
13074;DHT22;6603;47.066;15.396;2022-10-22T07:06:14;11.10;99.90
13074;DHT22;6603;47.066;15.396;2022-10-22T07:08:41;11.10;99.90
13074;DHT22;6603;47.066;15.396;2022-10-22T07:11:09;11.10;99.90
13074;DHT22;6603;47.066;15.396;2022-10-22T07:13:36;11.20;99.90
13074;DHT22;6603;47.066;15.396;2022-10-22T07:16:04;11.30;99.90
13074;DHT22;6603;47.066;15.396;2022-10-22T07:18:32;11.30;99.90
13074;DHT22;6603;47.066;15.396;2022-10-22T07:20:58;11.30;99.90
13074;DHT22;6603;47.066;15.396;2022-10-22T07:23:24;11.30;99.90
13074;DHT22;6603;47.066;15.396;2022-10-22T07:25:50;11.30;99.90
13074;DHT22;6603;47.066;15.396;2022-10-22T07:28:16;11.30;99.90
13074;DHT22;6603;47.066;15.396;2022-10-22T07:30:43;11.30;99.90
13074;DHT22;6603;47.066;15.396;2022-10-22T07:33:09;11.50;99.90
13074;DHT22;6603;47.066;15.396;2022-10-22T07:35:36;11.60;99.90
13074;DHT22;6603;47.066;15.396;2022-10-22T07:38:04;11.60;99.90
13074;DHT22;6603;47.066;15.396;2022-10-22T07:40:31;11.60;99.90
13074;DHT22;6603;47.066;15.396;2022-10-22T07:42:57;11.60;99.90
13074;DHT22;6603;47.066;15.396;2022-10-22T07:45:22;11.70;99.90
13074;DHT22;6603;47.066;15.396;2022-10-22T07:47:48;11.70;99.90
13074;DHT22;6603;47.066;15.396;2022-10-22T07:50:15;11.80;99.90
13074;DHT22;6603;47.066;15.396;2022-10-22T07:52:41;11.80;99.90
13074;DHT22;6603;47.066;15.396;2022-10-22T07:55:07;11.80;99.90
13074;DHT22;6603;47.066;15.396;2022-10-22T07:57:32;11.80;99.90
13074;DHT22;6603;47.066;15.396;2022-10-22T07:59:58;11.90;99.90
13074;DHT22;6603;47.066;15.396;2022-10-22T08:02:24;12.00;99.90
13074;DHT22;6603;47.066;15.396;2022-10-22T08:04:50;12.00;99.90
13074;DHT22;6603;47.066;15.396;2022-10-22T08:07:17;11.90;99.90
13074;DHT22;6603;47.066;15.396;2022-10-22T08:09:43;11.80;99.90
13074;DHT22;6603;47.066;15.396;2022-10-22T08:12:09;11.80;99.90
13074;DHT22;6603;47.066;15.396;2022-10-22T08:14:35;11.80;99.90
13074;DHT22;6603;47.066;15.396;2022-10-22T08:17:00;12.00;99.90
13074;DHT22;6603;47.066;15.396;2022-10-22T08:19:27;12.20;99.90
13074;DHT22;6603;47.066;15.396;2022-10-22T08:21:54;12.40;99.90
13074;DHT22;6603;47.066;15.396;2022-10-22T08:24:19;12.80;99.90
13074;DHT22;6603;47.066;15.396;2022-10-22T08:26:45;13.10;99.90
13074;DHT22;6603;47.066;15.396;2022-10-22T08:29:11;13.30;99.90
13074;DHT22;6603;47.066;15.396;2022-10-22T08:31:37;13.30;99.90
13074;DHT22;6603;47.066;15.396;2022-10-22T08:34:03;13.40;99.90
13074;DHT22;6603;47.066;15.396;2022-10-22T08:36:30;13.40;99.90
13074;DHT22;6603;47.066;15.396;2022-10-22T08:38:56;13.20;99.90
13074;DHT22;6603;47.066;15.396;2022-10-22T08:41:23;13.10;99.90
13074;DHT22;6603;47.066;15.396;2022-10-22T08:49:33;12.90;99.90
13074;DHT22;6603;47.066;15.396;2022-10-22T08:52:00;12.80;99.90
13074;DHT22;6603;47.066;15.396;2022-10-22T08:57:38;12.90;99.90
13074;DHT22;6603;47.066;15.396;2022-10-22T09:00:20;13.00;99.90
13074;DHT22;6603;47.066;15.396;2022-10-22T09:08:18;13.20;99.90
13074;DHT22;6603;47.066;15.396;2022-10-22T09:10:56;13.30;99.90
13074;DHT22;6603;47.066;15.396;2022-10-22T09:13:23;13.40;99.90
13074;DHT22;6603;47.066;15.396;2022-10-22T09:15:55;13.50;99.90
13074;DHT22;6603;47.066;15.396;2022-10-22T09:18:34;13.60;99.90
13074;DHT22;6603;47.066;15.396;2022-10-22T09:23:53;14.00;99.90
13074;DHT22;6603;47.066;15.396;2022-10-22T09:26:21;14.10;99.90
13074;DHT22;6603;47.066;15.396;2022-10-22T09:28:50;14.10;99.90
13074;DHT22;6603;47.066;15.396;2022-10-22T09:31:16;14.20;99.90
13074;DHT22;6603;47.066;15.396;2022-10-22T09:33:45;14.30;99.90
13074;DHT22;6603;47.066;15.396;2022-10-22T09:36:20;14.40;99.90
13074;DHT22;6603;47.066;15.396;2022-10-22T09:38:49;14.50;99.90
13074;DHT22;6603;47.066;15.396;2022-10-22T09:41:16;14.50;99.90
13074;DHT22;6603;47.066;15.396;2022-10-22T09:43:46;14.50;99.90
13074;DHT22;6603;47.066;15.396;2022-10-22T09:46:18;14.50;99.90
13074;DHT22;6603;47.066;15.396;2022-10-22T09:51:23;14.50;99.90
13074;DHT22;6603;47.066;15.396;2022-10-22T09:54:01;14.60;99.90
13074;DHT22;6603;47.066;15.396;2022-10-22T09:56:39;14.50;99.90
13074;DHT22;6603;47.066;15.396;2022-10-22T09:59:16;14.50;99.90
13074;DHT22;6603;47.066;15.396;2022-10-22T10:01:42;14.50;99.90
13074;DHT22;6603;47.066;15.396;2022-10-22T10:04:11;14.60;99.90
13074;DHT22;6603;47.066;15.396;2022-10-22T10:06:39;14.60;99.90
13074;DHT22;6603;47.066;15.396;2022-10-22T10:09:17;14.60;99.90
13074;DHT22;6603;47.066;15.396;2022-10-22T10:20:04;14.70;99.90
13074;DHT22;6603;47.066;15.396;2022-10-22T10:25:37;14.70;99.90
13074;DHT22;6603;47.066;15.396;2022-10-22T10:30:57;14.60;99.90
13074;DHT22;6603;47.066;15.396;2022-10-22T10:36:28;14.70;99.90
13074;DHT22;6603;47.066;15.396;2022-10-22T10:39:11;14.70;99.90
13074;DHT22;6603;47.066;15.396;2022-10-22T10:42:07;14.70;99.90
13074;DHT22;6603;47.066;15.396;2022-10-22T10:47:50;14.60;99.90
13074;DHT22;6603;47.066;15.396;2022-10-22T10:50:39;14.50;99.90
13074;DHT22;6603;47.066;15.396;2022-10-22T11:05:20;14.70;99.90
13074;DHT22;6603;47.066;15.396;2022-10-22T11:07:57;14.70;99.90
13074;DHT22;6603;47.066;15.396;2022-10-22T11:10:41;14.70;99.90
13074;DHT22;6603;47.066;15.396;2022-10-22T11:17:02;14.80;99.90
13074;DHT22;6603;47.066;15.396;2022-10-22T11:21:49;15.00;99.90
13074;DHT22;6603;47.066;15.396;2022-10-22T11:24:31;15.10;99.90
13074;DHT22;6603;47.066;15.396;2022-10-22T11:29:34;15.40;99.90
13074;DHT22;6603;47.066;15.396;2022-10-22T11:32:08;15.40;99.90
13074;DHT22;6603;47.066;15.396;2022-10-22T11:34:41;15.40;99.90
13074;DHT22;6603;47.066;15.396;2022-10-22T11:37:10;15.50;99.90
13074;DHT22;6603;47.066;15.396;2022-10-22T11:39:44;15.50;99.90
13074;DHT22;6603;47.066;15.396;2022-10-22T11:42:19;15.50;99.90
13074;DHT22;6603;47.066;15.396;2022-10-22T11:48:19;15.20;99.90
13074;DHT22;6603;47.066;15.396;2022-10-22T11:50:58;15.20;99.90
13074;DHT22;6603;47.066;15.396;2022-10-22T11:53:35;15.20;99.90
13074;DHT22;6603;47.066;15.396;2022-10-22T11:56:22;15.20;99.90
13074;DHT22;6603;47.066;15.396;2022-10-22T11:58:49;15.10;99.90
13074;DHT22;6603;47.066;15.396;2022-10-22T12:01:27;15.10;99.90
13074;DHT22;6603;47.066;15.396;2022-10-22T12:06:26;15.20;99.90
13074;DHT22;6603;47.066;15.396;2022-10-22T12:19:29;15.00;99.90
13074;DHT22;6603;47.066;15.396;2022-10-22T12:22:10;15.00;99.90
13074;DHT22;6603;47.066;15.396;2022-10-22T12:24:40;15.00;99.90
13074;DHT22;6603;47.066;15.396;2022-10-22T12:27:18;15.00;99.90
13074;DHT22;6603;47.066;15.396;2022-10-22T12:29:45;15.00;99.90
13074;DHT22;6603;47.066;15.396;2022-10-22T12:32:13;14.90;99.90
13074;DHT22;6603;47.066;15.396;2022-10-22T12:34:50;14.80;99.90
13074;DHT22;6603;47.066;15.396;2022-10-22T12:37:17;14.80;99.90
13074;DHT22;6603;47.066;15.396;2022-10-22T12:39:44;14.80;99.90
13074;DHT22;6603;47.066;15.396;2022-10-22T12:42:16;14.80;99.90
13074;DHT22;6603;47.066;15.396;2022-10-22T12:44:43;14.70;99.90
13074;DHT22;6603;47.066;15.396;2022-10-22T12:47:16;14.70;99.90
13074;DHT22;6603;47.066;15.396;2022-10-22T12:49:49;14.70;99.90
13074;DHT22;6603;47.066;15.396;2022-10-22T12:52:19;14.70;99.90
13074;DHT22;6603;47.066;15.396;2022-10-22T12:54:47;14.70;99.90
13074;DHT22;6603;47.066;15.396;2022-10-22T12:57:16;14.70;99.90
13074;DHT22;6603;47.066;15.396;2022-10-22T12:59:46;14.70;99.90
13074;DHT22;6603;47.066;15.396;2022-10-22T13:02:20;14.70;99.90
13074;DHT22;6603;47.066;15.396;2022-10-22T13:07:39;14.70;99.90
13074;DHT22;6603;47.066;15.396;2022-10-22T13:10:31;14.70;99.90
13074;DHT22;6603;47.066;15.396;2022-10-22T13:12:57;14.70;99.90
13074;DHT22;6603;47.066;15.396;2022-10-22T13:18:02;14.70;99.90
13074;DHT22;6603;47.066;15.396;2022-10-22T13:20:28;14.80;99.90
13074;DHT22;6603;47.066;15.396;2022-10-22T13:23:05;14.90;99.90
13074;DHT22;6603;47.066;15.396;2022-10-22T13:25:33;14.90;99.90
13074;DHT22;6603;47.066;15.396;2022-10-22T13:28:01;14.90;99.90
13074;DHT22;6603;47.066;15.396;2022-10-22T13:30:32;14.90;99.90
13074;DHT22;6603;47.066;15.396;2022-10-22T13:32:59;14.80;99.90
13074;DHT22;6603;47.066;15.396;2022-10-22T13:35:29;14.80;99.90
13074;DHT22;6603;47.066;15.396;2022-10-22T13:37:57;14.70;99.90
13074;DHT22;6603;47.066;15.396;2022-10-22T13:40:22;14.70;99.90
13074;DHT22;6603;47.066;15.396;2022-10-22T13:42:49;14.60;99.90
13074;DHT22;6603;47.066;15.396;2022-10-22T13:45:16;14.60;99.90
13074;DHT22;6603;47.066;15.396;2022-10-22T13:47:45;14.60;99.90
13074;DHT22;6603;47.066;15.396;2022-10-22T13:50:15;14.60;99.90
13074;DHT22;6603;47.066;15.396;2022-10-22T13:55:22;14.50;99.90
13074;DHT22;6603;47.066;15.396;2022-10-22T13:58:22;14.50;99.90
13074;DHT22;6603;47.066;15.396;2022-10-22T14:00:58;14.50;99.90
13074;DHT22;6603;47.066;15.396;2022-10-22T14:03:29;14.50;99.90
13074;DHT22;6603;47.066;15.396;2022-10-22T14:05:56;14.50;99.90
13074;DHT22;6603;47.066;15.396;2022-10-22T14:08:23;14.60;99.90
13074;DHT22;6603;47.066;15.396;2022-10-22T14:10:50;14.50;99.90
13074;DHT22;6603;47.066;15.396;2022-10-22T14:13:18;14.40;99.90
13074;DHT22;6603;47.066;15.396;2022-10-22T14:15:48;14.30;99.90
13074;DHT22;6603;47.066;15.396;2022-10-22T14:18:24;14.30;99.90
13074;DHT22;6603;47.066;15.396;2022-10-22T14:20:56;14.30;99.90
13074;DHT22;6603;47.066;15.396;2022-10-22T14:23:28;14.20;99.90
13074;DHT22;6603;47.066;15.396;2022-10-22T14:25:55;14.20;99.90
13074;DHT22;6603;47.066;15.396;2022-10-22T14:28:21;14.10;99.90
13074;DHT22;6603;47.066;15.396;2022-10-22T14:30:47;14.10;99.90
13074;DHT22;6603;47.066;15.396;2022-10-22T14:33:26;14.10;99.90
13074;DHT22;6603;47.066;15.396;2022-10-22T14:35:52;14.10;99.90
13074;DHT22;6603;47.066;15.396;2022-10-22T14:38:18;14.10;99.90
13074;DHT22;6603;47.066;15.396;2022-10-22T14:40:45;14.10;99.90
13074;DHT22;6603;47.066;15.396;2022-10-22T14:43:15;14.10;99.90
13074;DHT22;6603;47.066;15.396;2022-10-22T14:45:42;14.10;99.90
13074;DHT22;6603;47.066;15.396;2022-10-22T14:48:08;14.10;99.90
13074;DHT22;6603;47.066;15.396;2022-10-22T14:50:34;14.10;99.90
13074;DHT22;6603;47.066;15.396;2022-10-22T14:53:00;14.10;99.90
13074;DHT22;6603;47.066;15.396;2022-10-22T14:55:26;14.00;99.90
13074;DHT22;6603;47.066;15.396;2022-10-22T14:57:52;14.00;99.90
13074;DHT22;6603;47.066;15.396;2022-10-22T15:00:19;13.90;99.90
13074;DHT22;6603;47.066;15.396;2022-10-22T15:02:46;14.00;99.90
13074;DHT22;6603;47.066;15.396;2022-10-22T15:05:13;14.00;99.90
13074;DHT22;6603;47.066;15.396;2022-10-22T15:07:40;14.00;99.90
13074;DHT22;6603;47.066;15.396;2022-10-22T15:10:07;13.90;99.90
13074;DHT22;6603;47.066;15.396;2022-10-22T15:12:33;13.90;99.90
13074;DHT22;6603;47.066;15.396;2022-10-22T15:14:59;13.90;99.90
13074;DHT22;6603;47.066;15.396;2022-10-22T15:17:25;13.90;99.90
13074;DHT22;6603;47.066;15.396;2022-10-22T15:19:50;13.90;99.90
13074;DHT22;6603;47.066;15.396;2022-10-22T15:22:18;13.90;99.90
13074;DHT22;6603;47.066;15.396;2022-10-22T15:24:44;13.90;99.90
13074;DHT22;6603;47.066;15.396;2022-10-22T15:27:11;13.80;99.90
13074;DHT22;6603;47.066;15.396;2022-10-22T15:29:40;13.80;99.90
13074;DHT22;6603;47.066;15.396;2022-10-22T15:32:07;13.80;99.90
13074;DHT22;6603;47.066;15.396;2022-10-22T15:34:38;13.80;99.90
13074;DHT22;6603;47.066;15.396;2022-10-22T15:37:06;13.80;99.90
13074;DHT22;6603;47.066;15.396;2022-10-22T15:39:32;13.90;99.90
13074;DHT22;6603;47.066;15.396;2022-10-22T15:41:58;13.90;99.90
13074;DHT22;6603;47.066;15.396;2022-10-22T15:44:29;14.00;99.90
13074;DHT22;6603;47.066;15.396;2022-10-22T15:46:56;14.00;99.90
13074;DHT22;6603;47.066;15.396;2022-10-22T15:49:24;14.00;99.90
13074;DHT22;6603;47.066;15.396;2022-10-22T15:51:50;14.00;99.90
13074;DHT22;6603;47.066;15.396;2022-10-22T15:54:19;14.00;99.90
13074;DHT22;6603;47.066;15.396;2022-10-22T15:56:46;14.10;99.90
13074;DHT22;6603;47.066;15.396;2022-10-22T15:59:13;14.10;99.90
13074;DHT22;6603;47.066;15.396;2022-10-22T16:01:39;14.10;99.90
13074;DHT22;6603;47.066;15.396;2022-10-22T16:04:06;14.00;99.90
13074;DHT22;6603;47.066;15.396;2022-10-22T16:06:36;13.80;99.90
13074;DHT22;6603;47.066;15.396;2022-10-22T16:09:06;13.90;99.90
13074;DHT22;6603;47.066;15.396;2022-10-22T16:11:33;13.80;99.90
13074;DHT22;6603;47.066;15.396;2022-10-22T16:13:59;13.80;99.90
13074;DHT22;6603;47.066;15.396;2022-10-22T16:16:27;13.70;99.90
13074;DHT22;6603;47.066;15.396;2022-10-22T16:18:53;13.60;99.90
13074;DHT22;6603;47.066;15.396;2022-10-22T16:21:20;13.60;99.90
13074;DHT22;6603;47.066;15.396;2022-10-22T16:23:47;13.50;99.90
13074;DHT22;6603;47.066;15.396;2022-10-22T16:26:14;13.40;99.90
13074;DHT22;6603;47.066;15.396;2022-10-22T16:28:41;13.30;99.90
13074;DHT22;6603;47.066;15.396;2022-10-22T16:31:09;13.30;99.90
13074;DHT22;6603;47.066;15.396;2022-10-22T16:33:36;13.30;99.90
13074;DHT22;6603;47.066;15.396;2022-10-22T16:36:04;13.20;99.90
13074;DHT22;6603;47.066;15.396;2022-10-22T16:38:30;13.20;99.90
13074;DHT22;6603;47.066;15.396;2022-10-22T16:41:14;13.10;99.90
13074;DHT22;6603;47.066;15.396;2022-10-22T16:43:42;13.10;99.90
13074;DHT22;6603;47.066;15.396;2022-10-22T16:46:10;13.00;99.90
13074;DHT22;6603;47.066;15.396;2022-10-22T16:48:36;12.90;99.90
13074;DHT22;6603;47.066;15.396;2022-10-22T16:51:11;12.90;99.90
13074;DHT22;6603;47.066;15.396;2022-10-22T16:53:37;12.80;99.90
13074;DHT22;6603;47.066;15.396;2022-10-22T16:56:11;12.80;99.90
13074;DHT22;6603;47.066;15.396;2022-10-22T16:58:41;12.50;99.90
13074;DHT22;6603;47.066;15.396;2022-10-22T17:01:09;12.60;99.90
13074;DHT22;6603;47.066;15.396;2022-10-22T17:03:36;12.60;99.90
13074;DHT22;6603;47.066;15.396;2022-10-22T17:06:03;12.50;99.90
13074;DHT22;6603;47.066;15.396;2022-10-22T17:08:34;12.50;99.90
13074;DHT22;6603;47.066;15.396;2022-10-22T17:11:09;12.50;99.90
13074;DHT22;6603;47.066;15.396;2022-10-22T17:13:36;12.30;99.90
13074;DHT22;6603;47.066;15.396;2022-10-22T17:16:04;12.30;99.90
13074;DHT22;6603;47.066;15.396;2022-10-22T17:18:36;12.10;99.90
13074;DHT22;6603;47.066;15.396;2022-10-22T17:21:04;12.00;99.90
13074;DHT22;6603;47.066;15.396;2022-10-22T17:23:30;12.10;99.90
13074;DHT22;6603;47.066;15.396;2022-10-22T17:25:58;12.10;99.90
13074;DHT22;6603;47.066;15.396;2022-10-22T17:28:25;12.00;99.90
13074;DHT22;6603;47.066;15.396;2022-10-22T17:33:46;11.80;99.90
13074;DHT22;6603;47.066;15.396;2022-10-22T17:36:14;11.70;99.90
13074;DHT22;6603;47.066;15.396;2022-10-22T17:38:41;11.60;99.90
13074;DHT22;6603;47.066;15.396;2022-10-22T17:41:09;11.60;99.90
13074;DHT22;6603;47.066;15.396;2022-10-22T17:43:42;11.60;99.90